sensor_id;sensor_type;location;lat;lon;timestamp;P1;durP1;ratioP1;P2;durP2;ratioP2
45764;SDS011;31474;45.332;10.230;2022-07-29T00:01:22;5.70;;;3.88;;
45764;SDS011;31474;45.332;10.230;2022-07-29T00:03:47;5.57;;;4.10;;
45764;SDS011;31474;45.332;10.230;2022-07-29T00:06:14;5.53;;;4.28;;
45764;SDS011;31474;45.332;10.230;2022-07-29T00:08:40;3.92;;;3.53;;
45764;SDS011;31474;45.332;10.230;2022-07-29T00:11:05;4.57;;;4.03;;
45764;SDS011;31474;45.332;10.230;2022-07-29T00:13:31;4.20;;;3.80;;
45764;SDS011;31474;45.332;10.230;2022-07-29T00:15:56;3.83;;;3.30;;
45764;SDS011;31474;45.332;10.230;2022-07-29T00:18:22;4.68;;;4.00;;
45764;SDS011;31474;45.332;10.230;2022-07-29T00:20:48;4.03;;;3.65;;
45764;SDS011;31474;45.332;10.230;2022-07-29T00:23:13;5.05;;;3.47;;
45764;SDS011;31474;45.332;10.230;2022-07-29T00:25:39;7.68;;;3.33;;
45764;SDS011;31474;45.332;10.230;2022-07-29T00:28:05;5.35;;;3.53;;
45764;SDS011;31474;45.332;10.230;2022-07-29T00:30:30;3.83;;;3.33;;
45764;SDS011;31474;45.332;10.230;2022-07-29T00:32:56;4.28;;;3.85;;
45764;SDS011;31474;45.332;10.230;2022-07-29T00:35:22;5.22;;;3.55;;
45764;SDS011;31474;45.332;10.230;2022-07-29T00:38:06;4.45;;;3.28;;
45764;SDS011;31474;45.332;10.230;2022-07-29T00:40:31;3.83;;;3.42;;
45764;SDS011;31474;45.332;10.230;2022-07-29T00:42:57;3.85;;;3.45;;
45764;SDS011;31474;45.332;10.230;2022-07-29T00:45:23;4.40;;;3.47;;
45764;SDS011;31474;45.332;10.230;2022-07-29T00:47:49;5.25;;;3.58;;
45764;SDS011;31474;45.332;10.230;2022-07-29T00:50:15;4.93;;;4.22;;
45764;SDS011;31474;45.332;10.230;2022-07-29T00:52:41;4.22;;;3.65;;
45764;SDS011;31474;45.332;10.230;2022-07-29T00:55:11;4.97;;;4.43;;
45764;SDS011;31474;45.332;10.230;2022-07-29T00:57:38;4.78;;;3.75;;
45764;SDS011;31474;45.332;10.230;2022-07-29T01:00:06;6.18;;;4.10;;
45764;SDS011;31474;45.332;10.230;2022-07-29T01:02:34;4.95;;;3.50;;
45764;SDS011;31474;45.332;10.230;2022-07-29T01:05:01;4.22;;;3.50;;
45764;SDS011;31474;45.332;10.230;2022-07-29T01:07:27;4.85;;;3.90;;
45764;SDS011;31474;45.332;10.230;2022-07-29T01:09:55;4.10;;;3.67;;
45764;SDS011;31474;45.332;10.230;2022-07-29T01:12:22;4.57;;;3.53;;
45764;SDS011;31474;45.332;10.230;2022-07-29T01:14:50;3.53;;;3.22;;
45764;SDS011;31474;45.332;10.230;2022-07-29T01:19:53;4.28;;;3.45;;
45764;SDS011;31474;45.332;10.230;2022-07-29T01:22:49;4.28;;;3.85;;
45764;SDS011;31474;45.332;10.230;2022-07-29T01:31:39;4.25;;;3.72;;
45764;SDS011;31474;45.332;10.230;2022-07-29T01:36:51;6.80;;;4.03;;
45764;SDS011;31474;45.332;10.230;2022-07-29T01:39:26;5.38;;;3.60;;
45764;SDS011;31474;45.332;10.230;2022-07-29T01:41:58;5.00;;;3.92;;
45764;SDS011;31474;45.332;10.230;2022-07-29T01:44:37;5.15;;;4.22;;
45764;SDS011;31474;45.332;10.230;2022-07-29T01:47:28;6.32;;;4.53;;
45764;SDS011;31474;45.332;10.230;2022-07-29T01:49:59;6.68;;;5.13;;
45764;SDS011;31474;45.332;10.230;2022-07-29T01:52:34;6.63;;;5.10;;
45764;SDS011;31474;45.332;10.230;2022-07-29T01:55:09;6.30;;;4.88;;
45764;SDS011;31474;45.332;10.230;2022-07-29T01:57:39;6.07;;;4.75;;
45764;SDS011;31474;45.332;10.230;2022-07-29T02:00:08;9.50;;;5.30;;
45764;SDS011;31474;45.332;10.230;2022-07-29T02:02:34;6.28;;;5.00;;
45764;SDS011;31474;45.332;10.230;2022-07-29T02:05:02;7.10;;;5.05;;
45764;SDS011;31474;45.332;10.230;2022-07-29T02:07:31;8.27;;;5.45;;
45764;SDS011;31474;45.332;10.230;2022-07-29T02:09:58;10.18;;;5.57;;
45764;SDS011;31474;45.332;10.230;2022-07-29T02:12:27;11.18;;;6.07;;
45764;SDS011;31474;45.332;10.230;2022-07-29T02:14:56;7.88;;;6.05;;
45764;SDS011;31474;45.332;10.230;2022-07-29T02:18:00;8.68;;;5.90;;
45764;SDS011;31474;45.332;10.230;2022-07-29T02:20:28;8.50;;;6.72;;
45764;SDS011;31474;45.332;10.230;2022-07-29T02:22:55;8.85;;;6.57;;
45764;SDS011;31474;45.332;10.230;2022-07-29T02:25:23;12.65;;;6.68;;
45764;SDS011;31474;45.332;10.230;2022-07-29T02:27:50;7.45;;;6.22;;
45764;SDS011;31474;45.332;10.230;2022-07-29T02:30:16;11.00;;;7.30;;
45764;SDS011;31474;45.332;10.230;2022-07-29T02:32:43;10.40;;;6.45;;
45764;SDS011;31474;45.332;10.230;2022-07-29T02:35:12;8.45;;;6.57;;
45764;SDS011;31474;45.332;10.230;2022-07-29T02:37:39;11.45;;;7.10;;
45764;SDS011;31474;45.332;10.230;2022-07-29T02:40:06;11.48;;;7.03;;
45764;SDS011;31474;45.332;10.230;2022-07-29T02:42:35;12.05;;;8.60;;
45764;SDS011;31474;45.332;10.230;2022-07-29T02:45:02;13.18;;;7.75;;
45764;SDS011;31474;45.332;10.230;2022-07-29T02:52:41;8.05;;;7.18;;
45764;SDS011;31474;45.332;10.230;2022-07-29T02:55:22;12.43;;;8.13;;
45764;SDS011;31474;45.332;10.230;2022-07-29T02:57:58;10.88;;;8.32;;
45764;SDS011;31474;45.332;10.230;2022-07-29T03:00:31;16.15;;;8.55;;
45764;SDS011;31474;45.332;10.230;2022-07-29T03:03:03;13.50;;;7.90;;
45764;SDS011;31474;45.332;10.230;2022-07-29T03:05:33;13.50;;;7.65;;
45764;SDS011;31474;45.332;10.230;2022-07-29T03:08:01;9.90;;;8.60;;
45764;SDS011;31474;45.332;10.230;2022-07-29T03:10:29;12.32;;;8.82;;
45764;SDS011;31474;45.332;10.230;2022-07-29T03:12:56;12.38;;;9.13;;
45764;SDS011;31474;45.332;10.230;2022-07-29T03:15:23;13.75;;;9.07;;
45764;SDS011;31474;45.332;10.230;2022-07-29T03:17:50;13.25;;;9.65;;
45764;SDS011;31474;45.332;10.230;2022-07-29T03:20:17;14.57;;;9.63;;
45764;SDS011;31474;45.332;10.230;2022-07-29T03:22:43;15.88;;;9.43;;
45764;SDS011;31474;45.332;10.230;2022-07-29T03:25:12;15.95;;;9.40;;
45764;SDS011;31474;45.332;10.230;2022-07-29T03:27:42;12.45;;;10.65;;
45764;SDS011;31474;45.332;10.230;2022-07-29T03:30:08;15.07;;;11.07;;
45764;SDS011;31474;45.332;10.230;2022-07-29T03:32:35;14.13;;;11.38;;
45764;SDS011;31474;45.332;10.230;2022-07-29T03:35:02;16.77;;;12.32;;
45764;SDS011;31474;45.332;10.230;2022-07-29T03:37:28;16.13;;;11.80;;
45764;SDS011;31474;45.332;10.230;2022-07-29T03:39:55;15.60;;;11.77;;
45764;SDS011;31474;45.332;10.230;2022-07-29T03:42:23;15.57;;;11.48;;
45764;SDS011;31474;45.332;10.230;2022-07-29T03:44:52;16.55;;;11.25;;
45764;SDS011;31474;45.332;10.230;2022-07-29T03:47:22;15.02;;;11.85;;
45764;SDS011;31474;45.332;10.230;2022-07-29T03:49:50;16.80;;;11.75;;
45764;SDS011;31474;45.332;10.230;2022-07-29T03:52:19;15.25;;;11.52;;
45764;SDS011;31474;45.332;10.230;2022-07-29T03:54:46;11.93;;;10.18;;
45764;SDS011;31474;45.332;10.230;2022-07-29T03:57:12;13.18;;;10.70;;
45764;SDS011;31474;45.332;10.230;2022-07-29T03:59:39;14.40;;;10.60;;
45764;SDS011;31474;45.332;10.230;2022-07-29T04:02:07;12.35;;;10.68;;
45764;SDS011;31474;45.332;10.230;2022-07-29T04:04:35;16.65;;;10.70;;
45764;SDS011;31474;45.332;10.230;2022-07-29T04:07:01;13.55;;;11.07;;
45764;SDS011;31474;45.332;10.230;2022-07-29T04:09:26;15.68;;;10.88;;
45764;SDS011;31474;45.332;10.230;2022-07-29T04:11:52;12.77;;;10.50;;
45764;SDS011;31474;45.332;10.230;2022-07-29T04:14:18;13.55;;;10.25;;
45764;SDS011;31474;45.332;10.230;2022-07-29T04:16:43;11.77;;;10.30;;
45764;SDS011;31474;45.332;10.230;2022-07-29T04:19:09;12.15;;;10.88;;
45764;SDS011;31474;45.332;10.230;2022-07-29T04:21:38;13.18;;;11.65;;
45764;SDS011;31474;45.332;10.230;2022-07-29T04:24:04;29.27;;;12.27;;
45764;SDS011;31474;45.332;10.230;2022-07-29T04:26:30;16.45;;;12.60;;
45764;SDS011;31474;45.332;10.230;2022-07-29T04:28:56;17.60;;;12.38;;
45764;SDS011;31474;45.332;10.230;2022-07-29T04:31:22;16.70;;;13.00;;
45764;SDS011;31474;45.332;10.230;2022-07-29T04:33:47;13.88;;;12.38;;
45764;SDS011;31474;45.332;10.230;2022-07-29T04:36:13;15.63;;;12.25;;
45764;SDS011;31474;45.332;10.230;2022-07-29T04:38:39;17.17;;;12.77;;
45764;SDS011;31474;45.332;10.230;2022-07-29T04:41:05;16.85;;;12.20;;
45764;SDS011;31474;45.332;10.230;2022-07-29T04:43:32;13.68;;;11.15;;
45764;SDS011;31474;45.332;10.230;2022-07-29T04:45:58;17.40;;;11.88;;
45764;SDS011;31474;45.332;10.230;2022-07-29T04:48:25;13.68;;;10.95;;
45764;SDS011;31474;45.332;10.230;2022-07-29T04:50:51;14.48;;;10.55;;
45764;SDS011;31474;45.332;10.230;2022-07-29T04:53:17;14.98;;;11.48;;
45764;SDS011;31474;45.332;10.230;2022-07-29T04:55:43;18.67;;;12.20;;
45764;SDS011;31474;45.332;10.230;2022-07-29T04:58:09;16.02;;;12.40;;
45764;SDS011;31474;45.332;10.230;2022-07-29T05:00:35;19.17;;;11.77;;
45764;SDS011;31474;45.332;10.230;2022-07-29T05:03:01;13.43;;;11.68;;
45764;SDS011;31474;45.332;10.230;2022-07-29T05:05:27;15.85;;;12.57;;
45764;SDS011;31474;45.332;10.230;2022-07-29T05:07:53;19.55;;;11.98;;
45764;SDS011;31474;45.332;10.230;2022-07-29T05:10:18;18.98;;;13.65;;
45764;SDS011;31474;45.332;10.230;2022-07-29T05:12:44;14.35;;;12.15;;
45764;SDS011;31474;45.332;10.230;2022-07-29T05:15:10;19.70;;;12.18;;
45764;SDS011;31474;45.332;10.230;2022-07-29T05:17:36;16.40;;;11.85;;
45764;SDS011;31474;45.332;10.230;2022-07-29T05:20:02;13.43;;;11.13;;
45764;SDS011;31474;45.332;10.230;2022-07-29T05:22:28;16.90;;;11.07;;
45764;SDS011;31474;45.332;10.230;2022-07-29T05:24:54;15.98;;;11.90;;
45764;SDS011;31474;45.332;10.230;2022-07-29T05:27:20;16.20;;;11.77;;
45764;SDS011;31474;45.332;10.230;2022-07-29T05:29:45;12.82;;;10.25;;
45764;SDS011;31474;45.332;10.230;2022-07-29T05:32:13;13.27;;;11.13;;
45764;SDS011;31474;45.332;10.230;2022-07-29T05:34:40;14.55;;;11.05;;
45764;SDS011;31474;45.332;10.230;2022-07-29T05:37:06;15.63;;;10.43;;
45764;SDS011;31474;45.332;10.230;2022-07-29T05:39:32;13.40;;;11.82;;
45764;SDS011;31474;45.332;10.230;2022-07-29T05:41:57;13.60;;;11.57;;
45764;SDS011;31474;45.332;10.230;2022-07-29T05:44:23;13.90;;;10.88;;
45764;SDS011;31474;45.332;10.230;2022-07-29T05:46:49;12.38;;;10.50;;
45764;SDS011;31474;45.332;10.230;2022-07-29T05:49:14;13.88;;;10.77;;
45764;SDS011;31474;45.332;10.230;2022-07-29T05:51:40;15.90;;;11.38;;
45764;SDS011;31474;45.332;10.230;2022-07-29T05:54:05;16.48;;;10.80;;
45764;SDS011;31474;45.332;10.230;2022-07-29T05:56:31;17.35;;;11.02;;
45764;SDS011;31474;45.332;10.230;2022-07-29T05:58:57;14.52;;;11.07;;
45764;SDS011;31474;45.332;10.230;2022-07-29T06:01:23;13.38;;;10.10;;
45764;SDS011;31474;45.332;10.230;2022-07-29T06:03:49;14.45;;;10.15;;
45764;SDS011;31474;45.332;10.230;2022-07-29T06:06:14;12.07;;;9.75;;
45764;SDS011;31474;45.332;10.230;2022-07-29T06:08:40;14.00;;;9.95;;
45764;SDS011;31474;45.332;10.230;2022-07-29T06:11:06;12.95;;;9.77;;
45764;SDS011;31474;45.332;10.230;2022-07-29T06:13:33;11.95;;;9.93;;
45764;SDS011;31474;45.332;10.230;2022-07-29T06:15:59;10.35;;;8.70;;
45764;SDS011;31474;45.332;10.230;2022-07-29T06:18:24;12.38;;;9.30;;
45764;SDS011;31474;45.332;10.230;2022-07-29T06:20:50;11.57;;;8.80;;
45764;SDS011;31474;45.332;10.230;2022-07-29T06:23:16;9.75;;;8.63;;
45764;SDS011;31474;45.332;10.230;2022-07-29T06:25:43;12.05;;;7.75;;
45764;SDS011;31474;45.332;10.230;2022-07-29T06:28:08;8.07;;;7.18;;
45764;SDS011;31474;45.332;10.230;2022-07-29T06:30:34;12.30;;;8.40;;
45764;SDS011;31474;45.332;10.230;2022-07-29T06:33:00;11.40;;;7.07;;
45764;SDS011;31474;45.332;10.230;2022-07-29T06:35:26;6.63;;;5.82;;
45764;SDS011;31474;45.332;10.230;2022-07-29T06:37:52;10.00;;;6.78;;
45764;SDS011;31474;45.332;10.230;2022-07-29T06:40:18;11.90;;;6.55;;
45764;SDS011;31474;45.332;10.230;2022-07-29T06:43:03;9.55;;;5.38;;
45764;SDS011;31474;45.332;10.230;2022-07-29T06:45:28;7.32;;;5.50;;
45764;SDS011;31474;45.332;10.230;2022-07-29T06:47:54;7.68;;;6.28;;
45764;SDS011;31474;45.332;10.230;2022-07-29T06:50:19;8.07;;;6.47;;
45764;SDS011;31474;45.332;10.230;2022-07-29T06:52:46;10.23;;;6.82;;
45764;SDS011;31474;45.332;10.230;2022-07-29T06:55:12;10.85;;;6.43;;
45764;SDS011;31474;45.332;10.230;2022-07-29T06:57:39;13.32;;;6.68;;
45764;SDS011;31474;45.332;10.230;2022-07-29T07:00:05;9.15;;;6.10;;
45764;SDS011;31474;45.332;10.230;2022-07-29T07:02:31;10.80;;;5.75;;
45764;SDS011;31474;45.332;10.230;2022-07-29T07:04:57;7.55;;;5.80;;
45764;SDS011;31474;45.332;10.230;2022-07-29T07:07:23;11.77;;;6.03;;
45764;SDS011;31474;45.332;10.230;2022-07-29T07:09:49;6.93;;;5.78;;
45764;SDS011;31474;45.332;10.230;2022-07-29T07:12:15;8.65;;;6.10;;
45764;SDS011;31474;45.332;10.230;2022-07-29T07:14:41;9.18;;;5.88;;
45764;SDS011;31474;45.332;10.230;2022-07-29T07:17:06;9.35;;;6.25;;
45764;SDS011;31474;45.332;10.230;2022-07-29T07:19:32;8.20;;;6.72;;
45764;SDS011;31474;45.332;10.230;2022-07-29T07:21:58;11.35;;;7.40;;
45764;SDS011;31474;45.332;10.230;2022-07-29T07:24:24;12.10;;;7.15;;
45764;SDS011;31474;45.332;10.230;2022-07-29T07:26:50;9.70;;;7.40;;
45764;SDS011;31474;45.332;10.230;2022-07-29T07:29:16;8.98;;;6.45;;
45764;SDS011;31474;45.332;10.230;2022-07-29T07:31:41;7.70;;;6.43;;
45764;SDS011;31474;45.332;10.230;2022-07-29T07:34:07;8.25;;;7.07;;
45764;SDS011;31474;45.332;10.230;2022-07-29T07:36:33;8.73;;;6.85;;
45764;SDS011;31474;45.332;10.230;2022-07-29T07:38:58;13.30;;;8.00;;
45764;SDS011;31474;45.332;10.230;2022-07-29T07:41:24;10.93;;;7.32;;
45764;SDS011;31474;45.332;10.230;2022-07-29T07:43:50;8.90;;;7.03;;
45764;SDS011;31474;45.332;10.230;2022-07-29T07:46:15;8.27;;;7.13;;
45764;SDS011;31474;45.332;10.230;2022-07-29T07:48:41;10.23;;;7.18;;
45764;SDS011;31474;45.332;10.230;2022-07-29T07:51:07;8.35;;;6.93;;
45764;SDS011;31474;45.332;10.230;2022-07-29T07:53:33;10.40;;;7.25;;
45764;SDS011;31474;45.332;10.230;2022-07-29T07:55:59;10.77;;;8.07;;
45764;SDS011;31474;45.332;10.230;2022-07-29T07:58:24;11.18;;;7.43;;
45764;SDS011;31474;45.332;10.230;2022-07-29T08:00:50;10.25;;;7.82;;
45764;SDS011;31474;45.332;10.230;2022-07-29T08:03:16;11.13;;;7.68;;
45764;SDS011;31474;45.332;10.230;2022-07-29T08:05:41;11.05;;;7.93;;
45764;SDS011;31474;45.332;10.230;2022-07-29T08:08:07;10.80;;;7.72;;
45764;SDS011;31474;45.332;10.230;2022-07-29T08:10:33;9.30;;;7.60;;
45764;SDS011;31474;45.332;10.230;2022-07-29T08:13:20;8.70;;;6.63;;
45764;SDS011;31474;45.332;10.230;2022-07-29T08:15:46;7.05;;;6.32;;
45764;SDS011;31474;45.332;10.230;2022-07-29T08:18:13;8.90;;;6.03;;
45764;SDS011;31474;45.332;10.230;2022-07-29T08:20:39;11.73;;;7.13;;
45764;SDS011;31474;45.332;10.230;2022-07-29T08:23:05;11.30;;;6.80;;
45764;SDS011;31474;45.332;10.230;2022-07-29T08:25:34;7.15;;;6.25;;
45764;SDS011;31474;45.332;10.230;2022-07-29T08:28:01;7.07;;;6.28;;
45764;SDS011;31474;45.332;10.230;2022-07-29T08:30:27;7.43;;;5.95;;
45764;SDS011;31474;45.332;10.230;2022-07-29T08:32:52;10.80;;;6.28;;
45764;SDS011;31474;45.332;10.230;2022-07-29T08:35:19;6.70;;;4.57;;
45764;SDS011;31474;45.332;10.230;2022-07-29T08:37:46;5.07;;;3.70;;
45764;SDS011;31474;45.332;10.230;2022-07-29T08:40:12;7.00;;;4.93;;
45764;SDS011;31474;45.332;10.230;2022-07-29T08:42:39;6.88;;;4.25;;
45764;SDS011;31474;45.332;10.230;2022-07-29T08:45:05;6.53;;;4.53;;
45764;SDS011;31474;45.332;10.230;2022-07-29T08:47:31;8.82;;;6.53;;
45764;SDS011;31474;45.332;10.230;2022-07-29T08:49:58;9.35;;;6.28;;
45764;SDS011;31474;45.332;10.230;2022-07-29T08:52:25;10.52;;;6.03;;
45764;SDS011;31474;45.332;10.230;2022-07-29T08:54:52;10.55;;;5.90;;
45764;SDS011;31474;45.332;10.230;2022-07-29T08:57:18;9.32;;;5.88;;
45764;SDS011;31474;45.332;10.230;2022-07-29T08:59:46;7.22;;;6.50;;
45764;SDS011;31474;45.332;10.230;2022-07-29T09:02:19;8.13;;;6.57;;
45764;SDS011;31474;45.332;10.230;2022-07-29T09:04:46;9.05;;;6.13;;
45764;SDS011;31474;45.332;10.230;2022-07-29T09:07:14;7.32;;;6.53;;
45764;SDS011;31474;45.332;10.230;2022-07-29T09:09:42;8.60;;;5.53;;
45764;SDS011;31474;45.332;10.230;2022-07-29T09:12:09;8.75;;;5.90;;
45764;SDS011;31474;45.332;10.230;2022-07-29T09:14:36;8.27;;;6.25;;
45764;SDS011;31474;45.332;10.230;2022-07-29T09:17:05;8.73;;;6.10;;
45764;SDS011;31474;45.332;10.230;2022-07-29T09:19:35;9.13;;;8.02;;
45764;SDS011;31474;45.332;10.230;2022-07-29T09:22:05;9.77;;;8.18;;
45764;SDS011;31474;45.332;10.230;2022-07-29T09:29:57;9.85;;;5.90;;
45764;SDS011;31474;45.332;10.230;2022-07-29T09:32:53;7.68;;;5.40;;
45764;SDS011;31474;45.332;10.230;2022-07-29T09:35:21;8.48;;;5.93;;
45764;SDS011;31474;45.332;10.230;2022-07-29T09:37:48;6.57;;;4.68;;
45764;SDS011;31474;45.332;10.230;2022-07-29T09:40:16;7.60;;;5.43;;
45764;SDS011;31474;45.332;10.230;2022-07-29T09:42:43;7.20;;;5.68;;
45764;SDS011;31474;45.332;10.230;2022-07-29T09:45:09;5.82;;;4.20;;
45764;SDS011;31474;45.332;10.230;2022-07-29T09:47:43;7.80;;;6.53;;
45764;SDS011;31474;45.332;10.230;2022-07-29T09:50:10;10.68;;;6.30;;
45764;SDS011;31474;45.332;10.230;2022-07-29T09:52:50;8.90;;;5.43;;
45764;SDS011;31474;45.332;10.230;2022-07-29T09:55:17;15.10;;;6.70;;
45764;SDS011;31474;45.332;10.230;2022-07-29T09:57:43;9.20;;;6.90;;
45764;SDS011;31474;45.332;10.230;2022-07-29T10:00:11;10.77;;;7.65;;
45764;SDS011;31474;45.332;10.230;2022-07-29T10:02:43;13.43;;;8.23;;
45764;SDS011;31474;45.332;10.230;2022-07-29T10:05:19;10.65;;;7.75;;
45764;SDS011;31474;45.332;10.230;2022-07-29T10:07:46;7.80;;;6.82;;
45764;SDS011;31474;45.332;10.230;2022-07-29T10:10:23;9.73;;;7.60;;
45764;SDS011;31474;45.332;10.230;2022-07-29T10:12:54;13.00;;;8.25;;
45764;SDS011;31474;45.332;10.230;2022-07-29T10:15:29;10.50;;;7.40;;
45764;SDS011;31474;45.332;10.230;2022-07-29T10:17:59;8.75;;;5.82;;
45764;SDS011;31474;45.332;10.230;2022-07-29T10:20:26;8.10;;;7.03;;
45764;SDS011;31474;45.332;10.230;2022-07-29T10:22:53;9.25;;;6.90;;
45764;SDS011;31474;45.332;10.230;2022-07-29T10:25:19;9.95;;;7.57;;
45764;SDS011;31474;45.332;10.230;2022-07-29T10:27:45;9.73;;;8.57;;
45764;SDS011;31474;45.332;10.230;2022-07-29T10:30:13;8.90;;;7.70;;
45764;SDS011;31474;45.332;10.230;2022-07-29T10:32:46;10.02;;;8.07;;
45764;SDS011;31474;45.332;10.230;2022-07-29T10:43:55;12.00;;;8.27;;
45764;SDS011;31474;45.332;10.230;2022-07-29T10:46:24;9.30;;;8.15;;
45764;SDS011;31474;45.332;10.230;2022-07-29T10:49:04;10.80;;;7.63;;
45764;SDS011;31474;45.332;10.230;2022-07-29T10:59:41;7.82;;;6.22;;
45764;SDS011;31474;45.332;10.230;2022-07-29T11:07:34;8.88;;;6.57;;
45764;SDS011;31474;45.332;10.230;2022-07-29T11:15:12;10.27;;;7.65;;
45764;SDS011;31474;45.332;10.230;2022-07-29T11:20:33;6.13;;;5.23;;
45764;SDS011;31474;45.332;10.230;2022-07-29T11:22:59;10.33;;;7.07;;
45764;SDS011;31474;45.332;10.230;2022-07-29T11:25:25;8.15;;;6.55;;
45764;SDS011;31474;45.332;10.230;2022-07-29T11:27:52;10.85;;;7.57;;
45764;SDS011;31474;45.332;10.230;2022-07-29T11:30:19;12.50;;;6.90;;
45764;SDS011;31474;45.332;10.230;2022-07-29T11:32:45;9.70;;;7.20;;
45764;SDS011;31474;45.332;10.230;2022-07-29T11:43:52;8.52;;;7.28;;
45764;SDS011;31474;45.332;10.230;2022-07-29T11:49:22;10.38;;;5.95;;
45764;SDS011;31474;45.332;10.230;2022-07-29T11:51:52;6.82;;;5.45;;
45764;SDS011;31474;45.332;10.230;2022-07-29T11:54:25;7.10;;;5.85;;
45764;SDS011;31474;45.332;10.230;2022-07-29T11:56:55;6.70;;;5.75;;
45764;SDS011;31474;45.332;10.230;2022-07-29T11:59:22;7.97;;;6.10;;
45764;SDS011;31474;45.332;10.230;2022-07-29T12:01:53;6.20;;;5.53;;
45764;SDS011;31474;45.332;10.230;2022-07-29T12:04:23;7.18;;;5.53;;
45764;SDS011;31474;45.332;10.230;2022-07-29T12:06:53;10.20;;;7.88;;
45764;SDS011;31474;45.332;10.230;2022-07-29T12:09:19;11.13;;;7.97;;
45764;SDS011;31474;45.332;10.230;2022-07-29T12:11:46;12.35;;;7.53;;
45764;SDS011;31474;45.332;10.230;2022-07-29T12:14:28;8.85;;;5.05;;
45764;SDS011;31474;45.332;10.230;2022-07-29T12:16:55;8.43;;;5.50;;
45764;SDS011;31474;45.332;10.230;2022-07-29T12:19:21;8.23;;;5.80;;
45764;SDS011;31474;45.332;10.230;2022-07-29T12:21:47;10.30;;;5.28;;
45764;SDS011;31474;45.332;10.230;2022-07-29T12:24:17;6.28;;;5.50;;
45764;SDS011;31474;45.332;10.230;2022-07-29T12:26:50;7.13;;;5.25;;
45764;SDS011;31474;45.332;10.230;2022-07-29T12:29:19;6.88;;;5.70;;
45764;SDS011;31474;45.332;10.230;2022-07-29T12:31:45;6.88;;;5.72;;
45764;SDS011;31474;45.332;10.230;2022-07-29T12:34:12;11.13;;;5.75;;
45764;SDS011;31474;45.332;10.230;2022-07-29T12:36:40;8.30;;;5.97;;
45764;SDS011;31474;45.332;10.230;2022-07-29T12:39:07;8.38;;;6.00;;
45764;SDS011;31474;45.332;10.230;2022-07-29T12:41:34;8.50;;;5.82;;
45764;SDS011;31474;45.332;10.230;2022-07-29T12:44:00;8.95;;;4.78;;
45764;SDS011;31474;45.332;10.230;2022-07-29T12:46:26;10.98;;;5.38;;
45764;SDS011;31474;45.332;10.230;2022-07-29T12:48:52;10.70;;;5.10;;
45764;SDS011;31474;45.332;10.230;2022-07-29T12:51:35;11.27;;;5.57;;
45764;SDS011;31474;45.332;10.230;2022-07-29T12:56:28;10.07;;;5.25;;
45764;SDS011;31474;45.332;10.230;2022-07-29T12:58:54;8.02;;;5.00;;
45764;SDS011;31474;45.332;10.230;2022-07-29T13:01:19;14.90;;;5.25;;
45764;SDS011;31474;45.332;10.230;2022-07-29T13:06:28;8.77;;;6.35;;
45764;SDS011;31474;45.332;10.230;2022-07-29T13:09:00;8.48;;;6.38;;
45764;SDS011;31474;45.332;10.230;2022-07-29T13:11:30;6.32;;;5.72;;
45764;SDS011;31474;45.332;10.230;2022-07-29T13:13:55;12.98;;;5.88;;
45764;SDS011;31474;45.332;10.230;2022-07-29T13:16:21;7.22;;;6.20;;
45764;SDS011;31474;45.332;10.230;2022-07-29T13:18:47;7.75;;;4.78;;
45764;SDS011;31474;45.332;10.230;2022-07-29T13:21:15;7.97;;;5.05;;
45764;SDS011;31474;45.332;10.230;2022-07-29T13:23:41;8.98;;;6.30;;
45764;SDS011;31474;45.332;10.230;2022-07-29T13:26:07;10.15;;;7.13;;
45764;SDS011;31474;45.332;10.230;2022-07-29T13:28:36;12.07;;;6.82;;
45764;SDS011;31474;45.332;10.230;2022-07-29T13:31:02;8.40;;;5.95;;
45764;SDS011;31474;45.332;10.230;2022-07-29T13:33:28;9.25;;;5.93;;
45764;SDS011;31474;45.332;10.230;2022-07-29T13:35:53;7.75;;;5.93;;
45764;SDS011;31474;45.332;10.230;2022-07-29T13:38:19;9.88;;;5.80;;
45764;SDS011;31474;45.332;10.230;2022-07-29T13:40:45;8.93;;;6.60;;
45764;SDS011;31474;45.332;10.230;2022-07-29T13:43:11;6.88;;;6.18;;
45764;SDS011;31474;45.332;10.230;2022-07-29T13:45:37;7.50;;;5.90;;
45764;SDS011;31474;45.332;10.230;2022-07-29T13:48:03;7.10;;;5.35;;
45764;SDS011;31474;45.332;10.230;2022-07-29T13:50:28;7.82;;;6.15;;
45764;SDS011;31474;45.332;10.230;2022-07-29T13:52:54;6.32;;;5.53;;
45764;SDS011;31474;45.332;10.230;2022-07-29T13:55:20;9.43;;;4.63;;
45764;SDS011;31474;45.332;10.230;2022-07-29T13:57:46;9.77;;;4.82;;
45764;SDS011;31474;45.332;10.230;2022-07-29T14:00:12;7.32;;;5.10;;
45764;SDS011;31474;45.332;10.230;2022-07-29T14:02:38;5.88;;;4.88;;
45764;SDS011;31474;45.332;10.230;2022-07-29T14:05:07;6.32;;;4.28;;
45764;SDS011;31474;45.332;10.230;2022-07-29T14:07:34;7.07;;;4.80;;
45764;SDS011;31474;45.332;10.230;2022-07-29T14:10:00;6.32;;;4.13;;
45764;SDS011;31474;45.332;10.230;2022-07-29T14:12:26;5.00;;;4.40;;
45764;SDS011;31474;45.332;10.230;2022-07-29T14:14:52;6.10;;;4.75;;
45764;SDS011;31474;45.332;10.230;2022-07-29T14:17:17;6.97;;;4.72;;
45764;SDS011;31474;45.332;10.230;2022-07-29T14:19:43;12.68;;;5.00;;
45764;SDS011;31474;45.332;10.230;2022-07-29T14:22:08;6.50;;;4.25;;
45764;SDS011;31474;45.332;10.230;2022-07-29T14:24:35;5.32;;;4.43;;
45764;SDS011;31474;45.332;10.230;2022-07-29T14:27:02;6.68;;;4.32;;
45764;SDS011;31474;45.332;10.230;2022-07-29T14:29:28;9.50;;;4.53;;
45764;SDS011;31474;45.332;10.230;2022-07-29T14:31:53;5.53;;;4.55;;
45764;SDS011;31474;45.332;10.230;2022-07-29T14:34:19;9.20;;;4.50;;
45764;SDS011;31474;45.332;10.230;2022-07-29T14:36:45;7.60;;;4.28;;
45764;SDS011;31474;45.332;10.230;2022-07-29T14:39:11;6.15;;;3.90;;
45764;SDS011;31474;45.332;10.230;2022-07-29T14:41:36;5.90;;;3.88;;
45764;SDS011;31474;45.332;10.230;2022-07-29T14:44:03;7.05;;;3.35;;
45764;SDS011;31474;45.332;10.230;2022-07-29T14:46:29;6.13;;;3.22;;
45764;SDS011;31474;45.332;10.230;2022-07-29T14:48:54;3.72;;;3.28;;
45764;SDS011;31474;45.332;10.230;2022-07-29T14:51:20;4.93;;;3.67;;
45764;SDS011;31474;45.332;10.230;2022-07-29T14:53:46;7.03;;;4.00;;
45764;SDS011;31474;45.332;10.230;2022-07-29T14:56:11;7.75;;;3.85;;
45764;SDS011;31474;45.332;10.230;2022-07-29T14:58:37;6.30;;;4.00;;
45764;SDS011;31474;45.332;10.230;2022-07-29T15:01:03;8.30;;;3.85;;
45764;SDS011;31474;45.332;10.230;2022-07-29T15:03:29;4.20;;;3.80;;
45764;SDS011;31474;45.332;10.230;2022-07-29T15:05:54;8.25;;;3.42;;
45764;SDS011;31474;45.332;10.230;2022-07-29T15:08:20;10.88;;;4.20;;
45764;SDS011;31474;45.332;10.230;2022-07-29T15:10:46;6.30;;;4.05;;
45764;SDS011;31474;45.332;10.230;2022-07-29T15:13:11;6.25;;;4.75;;
45764;SDS011;31474;45.332;10.230;2022-07-29T15:15:37;7.03;;;4.18;;
45764;SDS011;31474;45.332;10.230;2022-07-29T15:18:03;5.07;;;3.88;;
45764;SDS011;31474;45.332;10.230;2022-07-29T15:20:29;14.40;;;5.15;;
45764;SDS011;31474;45.332;10.230;2022-07-29T15:22:55;17.67;;;6.22;;
45764;SDS011;31474;45.332;10.230;2022-07-29T15:25:21;12.10;;;5.95;;
45764;SDS011;31474;45.332;10.230;2022-07-29T15:27:47;8.35;;;5.43;;
45764;SDS011;31474;45.332;10.230;2022-07-29T15:30:13;6.70;;;6.00;;
45764;SDS011;31474;45.332;10.230;2022-07-29T15:32:41;7.75;;;5.63;;
45764;SDS011;31474;45.332;10.230;2022-07-29T15:35:10;8.25;;;6.88;;
45764;SDS011;31474;45.332;10.230;2022-07-29T15:37:37;13.10;;;7.07;;